sensor_id;sensor_type;location;lat;lon;timestamp;temperature;humidity
71304;DHT22;59091;47.446;19.148;2023-02-18T00:00:08;12.14;65.81
71304;DHT22;59091;47.446;19.148;2023-02-18T00:02:34;12.22;66.02
71304;DHT22;59091;47.446;19.148;2023-02-18T00:04:59;12.25;66.34
71304;DHT22;59091;47.446;19.148;2023-02-18T00:07:25;12.39;66.04
71304;DHT22;59091;47.446;19.148;2023-02-18T00:09:50;12.48;66.05
71304;DHT22;59091;47.446;19.148;2023-02-18T00:12:15;12.65;65.89
71304;DHT22;59091;47.446;19.148;2023-02-18T00:14:41;12.73;65.72
71304;DHT22;59091;47.446;19.148;2023-02-18T00:17:06;12.78;65.67
71304;DHT22;59091;47.446;19.148;2023-02-18T00:19:32;12.88;65.35
71304;DHT22;59091;47.446;19.148;2023-02-18T00:21:57;12.97;65.22
71304;DHT22;59091;47.446;19.148;2023-02-18T00:24:23;12.95;64.95
71304;DHT22;59091;47.446;19.148;2023-02-18T00:26:50;13.09;64.69
71304;DHT22;59091;47.446;19.148;2023-02-18T00:29:16;13.11;64.72
71304;DHT22;59091;47.446;19.148;2023-02-18T00:31:41;13.10;64.64
71304;DHT22;59091;47.446;19.148;2023-02-18T00:34:09;13.07;64.70
71304;DHT22;59091;47.446;19.148;2023-02-18T00:36:35;13.16;64.49
71304;DHT22;59091;47.446;19.148;2023-02-18T00:39:03;13.13;64.72
71304;DHT22;59091;47.446;19.148;2023-02-18T00:41:29;13.16;64.86
71304;DHT22;59091;47.446;19.148;2023-02-18T00:43:55;13.23;64.71
71304;DHT22;59091;47.446;19.148;2023-02-18T00:46:21;13.23;64.79
71304;DHT22;59091;47.446;19.148;2023-02-18T00:48:47;13.24;64.78
71304;DHT22;59091;47.446;19.148;2023-02-18T00:51:12;13.27;64.88
71304;DHT22;59091;47.446;19.148;2023-02-18T00:53:39;13.28;64.72
71304;DHT22;59091;47.446;19.148;2023-02-18T00:56:05;13.33;64.84
71304;DHT22;59091;47.446;19.148;2023-02-18T00:58:30;13.28;65.07
71304;DHT22;59091;47.446;19.148;2023-02-18T01:00:56;13.36;64.97
71304;DHT22;59091;47.446;19.148;2023-02-18T01:03:22;13.44;64.71
71304;DHT22;59091;47.446;19.148;2023-02-18T01:05:48;13.43;64.72
71304;DHT22;59091;47.446;19.148;2023-02-18T01:08:16;13.33;65.03
71304;DHT22;59091;47.446;19.148;2023-02-18T01:10:43;13.47;64.75
71304;DHT22;59091;47.446;19.148;2023-02-18T01:13:09;13.46;64.80
71304;DHT22;59091;47.446;19.148;2023-02-18T01:15:36;13.40;64.88
71304;DHT22;59091;47.446;19.148;2023-02-18T01:18:02;13.41;65.00
71304;DHT22;59091;47.446;19.148;2023-02-18T01:20:27;13.33;65.40
71304;DHT22;59091;47.446;19.148;2023-02-18T01:22:53;13.40;65.15
71304;DHT22;59091;47.446;19.148;2023-02-18T01:25:18;13.26;65.64
71304;DHT22;59091;47.446;19.148;2023-02-18T01:27:44;13.34;65.36
71304;DHT22;59091;47.446;19.148;2023-02-18T01:30:14;13.37;65.46
71304;DHT22;59091;47.446;19.148;2023-02-18T01:32:39;13.30;65.65
71304;DHT22;59091;47.446;19.148;2023-02-18T01:35:06;13.41;65.55
71304;DHT22;59091;47.446;19.148;2023-02-18T01:37:32;13.33;65.45
71304;DHT22;59091;47.446;19.148;2023-02-18T01:39:58;13.39;65.53
71304;DHT22;59091;47.446;19.148;2023-02-18T01:42:27;13.47;65.08
71304;DHT22;59091;47.446;19.148;2023-02-18T01:44:53;13.55;64.95
71304;DHT22;59091;47.446;19.148;2023-02-18T01:47:19;13.48;64.93
71304;DHT22;59091;47.446;19.148;2023-02-18T01:49:51;13.48;64.70
71304;DHT22;59091;47.446;19.148;2023-02-18T01:52:21;13.46;64.86
71304;DHT22;59091;47.446;19.148;2023-02-18T01:54:51;13.33;64.99
71304;DHT22;59091;47.446;19.148;2023-02-18T01:57:21;13.47;64.65
71304;DHT22;59091;47.446;19.148;2023-02-18T02:02:17;13.62;64.21
71304;DHT22;59091;47.446;19.148;2023-02-18T02:04:43;13.54;64.27
71304;DHT22;59091;47.446;19.148;2023-02-18T02:07:09;13.60;64.16
71304;DHT22;59091;47.446;19.148;2023-02-18T02:09:35;13.65;63.93
71304;DHT22;59091;47.446;19.148;2023-02-18T02:18:15;13.97;62.52
71304;DHT22;59091;47.446;19.148;2023-02-18T02:28:37;14.44;60.62
71304;DHT22;59091;47.446;19.148;2023-02-18T02:39:11;14.76;59.25
71304;DHT22;59091;47.446;19.148;2023-02-18T02:42:04;14.90;58.99
71304;DHT22;59091;47.446;19.148;2023-02-18T02:44:38;14.90;59.02
71304;DHT22;59091;47.446;19.148;2023-02-18T02:47:16;14.84;58.99
71304;DHT22;59091;47.446;19.148;2023-02-18T02:52:30;14.85;59.04
71304;DHT22;59091;47.446;19.148;2023-02-18T02:54:56;14.83;58.95
71304;DHT22;59091;47.446;19.148;2023-02-18T02:59:51;14.91;58.84
71304;DHT22;59091;47.446;19.148;2023-02-18T03:08:23;14.90;58.72
71304;DHT22;59091;47.446;19.148;2023-02-18T03:11:05;14.91;58.64
71304;DHT22;59091;47.446;19.148;2023-02-18T03:19:21;14.90;58.77
71304;DHT22;59091;47.446;19.148;2023-02-18T03:21:55;14.88;58.72
71304;DHT22;59091;47.446;19.148;2023-02-18T03:24:37;14.93;58.83
71304;DHT22;59091;47.446;19.148;2023-02-18T03:27:52;14.88;58.89
71304;DHT22;59091;47.446;19.148;2023-02-18T03:30:21;14.95;58.78
71304;DHT22;59091;47.446;19.148;2023-02-18T03:32:49;14.90;58.71
71304;DHT22;59091;47.446;19.148;2023-02-18T03:35:17;14.88;58.70
71304;DHT22;59091;47.446;19.148;2023-02-18T03:37:52;14.88;58.72
71304;DHT22;59091;47.446;19.148;2023-02-18T03:40:19;14.91;59.00
71304;DHT22;59091;47.446;19.148;2023-02-18T03:42:44;14.84;59.03
71304;DHT22;59091;47.446;19.148;2023-02-18T03:45:10;14.83;59.19
71304;DHT22;59091;47.446;19.148;2023-02-18T03:47:36;14.81;59.14
71304;DHT22;59091;47.446;19.148;2023-02-18T03:50:02;14.73;59.64
71304;DHT22;59091;47.446;19.148;2023-02-18T03:52:27;14.77;59.55
71304;DHT22;59091;47.446;19.148;2023-02-18T03:54:53;14.80;59.64
71304;DHT22;59091;47.446;19.148;2023-02-18T03:57:18;14.76;59.62
71304;DHT22;59091;47.446;19.148;2023-02-18T03:59:43;14.66;59.99
71304;DHT22;59091;47.446;19.148;2023-02-18T04:02:09;14.73;59.85
71304;DHT22;59091;47.446;19.148;2023-02-18T04:04:34;14.83;59.75
71304;DHT22;59091;47.446;19.148;2023-02-18T04:07:00;14.69;59.84
71304;DHT22;59091;47.446;19.148;2023-02-18T04:09:25;14.63;60.04
71304;DHT22;59091;47.446;19.148;2023-02-18T04:11:51;14.67;60.06
71304;DHT22;59091;47.446;19.148;2023-02-18T04:14:16;14.62;60.35
71304;DHT22;59091;47.446;19.148;2023-02-18T04:16:42;14.74;60.11
71304;DHT22;59091;47.446;19.148;2023-02-18T04:19:07;14.60;60.30
71304;DHT22;59091;47.446;19.148;2023-02-18T04:21:33;14.69;60.44
71304;DHT22;59091;47.446;19.148;2023-02-18T04:23:59;14.63;60.44
71304;DHT22;59091;47.446;19.148;2023-02-18T04:26:25;14.56;60.69
71304;DHT22;59091;47.446;19.148;2023-02-18T04:28:51;14.64;60.85
71304;DHT22;59091;47.446;19.148;2023-02-18T04:31:16;14.53;60.97
71304;DHT22;59091;47.446;19.148;2023-02-18T04:33:42;14.56;61.22
71304;DHT22;59091;47.446;19.148;2023-02-18T04:36:08;14.46;61.43
71304;DHT22;59091;47.446;19.148;2023-02-18T04:38:33;14.42;61.59
71304;DHT22;59091;47.446;19.148;2023-02-18T04:40:59;14.50;61.66
71304;DHT22;59091;47.446;19.148;2023-02-18T04:43:24;14.50;61.47
71304;DHT22;59091;47.446;19.148;2023-02-18T04:45:50;14.33;61.87
71304;DHT22;59091;47.446;19.148;2023-02-18T04:48:15;14.29;61.93
71304;DHT22;59091;47.446;19.148;2023-02-18T04:50:40;14.28;62.25
71304;DHT22;59091;47.446;19.148;2023-02-18T04:53:07;14.18;62.51
71304;DHT22;59091;47.446;19.148;2023-02-18T04:55:33;14.12;62.66
71304;DHT22;59091;47.446;19.148;2023-02-18T04:57:58;14.13;62.68
71304;DHT22;59091;47.446;19.148;2023-02-18T05:00:24;14.13;62.73
71304;DHT22;59091;47.446;19.148;2023-02-18T05:02:49;14.13;62.65
71304;DHT22;59091;47.446;19.148;2023-02-18T05:05:15;14.13;62.47
71304;DHT22;59091;47.446;19.148;2023-02-18T05:07:40;14.21;62.34
71304;DHT22;59091;47.446;19.148;2023-02-18T05:10:11;14.30;62.49
71304;DHT22;59091;47.446;19.148;2023-02-18T05:12:38;14.18;62.60
71304;DHT22;59091;47.446;19.148;2023-02-18T05:15:04;14.22;62.31
71304;DHT22;59091;47.446;19.148;2023-02-18T05:17:30;14.23;62.51
71304;DHT22;59091;47.446;19.148;2023-02-18T05:19:56;14.26;62.61
71304;DHT22;59091;47.446;19.148;2023-02-18T05:22:21;14.29;62.54
71304;DHT22;59091;47.446;19.148;2023-02-18T05:24:47;14.21;63.14
71304;DHT22;59091;47.446;19.148;2023-02-18T05:27:12;14.13;63.50
71304;DHT22;59091;47.446;19.148;2023-02-18T05:29:38;14.21;63.36
71304;DHT22;59091;47.446;19.148;2023-02-18T05:32:03;14.15;63.73
71304;DHT22;59091;47.446;19.148;2023-02-18T05:34:29;14.16;63.81
71304;DHT22;59091;47.446;19.148;2023-02-18T05:36:54;14.15;63.85
71304;DHT22;59091;47.446;19.148;2023-02-18T05:39:19;14.21;63.74
71304;DHT22;59091;47.446;19.148;2023-02-18T05:41:45;14.32;63.53
71304;DHT22;59091;47.446;19.148;2023-02-18T05:44:10;14.32;63.61
71304;DHT22;59091;47.446;19.148;2023-02-18T05:46:54;14.36;63.27
71304;DHT22;59091;47.446;19.148;2023-02-18T05:49:20;14.26;63.42
71304;DHT22;59091;47.446;19.148;2023-02-18T05:51:45;14.01;64.20
71304;DHT22;59091;47.446;19.148;2023-02-18T05:54:11;14.05;64.36
71304;DHT22;59091;47.446;19.148;2023-02-18T05:56:36;13.94;64.52
71304;DHT22;59091;47.446;19.148;2023-02-18T05:59:02;13.94;64.61
71304;DHT22;59091;47.446;19.148;2023-02-18T06:01:27;13.92;64.61
71304;DHT22;59091;47.446;19.148;2023-02-18T06:03:53;13.92;64.56
71304;DHT22;59091;47.446;19.148;2023-02-18T06:06:18;13.95;64.57
71304;DHT22;59091;47.446;19.148;2023-02-18T06:08:43;13.88;64.66
71304;DHT22;59091;47.446;19.148;2023-02-18T06:11:09;13.91;64.21
71304;DHT22;59091;47.446;19.148;2023-02-18T06:13:34;13.95;64.05
71304;DHT22;59091;47.446;19.148;2023-02-18T06:16:00;13.86;64.05
71304;DHT22;59091;47.446;19.148;2023-02-18T06:18:25;13.95;63.76
71304;DHT22;59091;47.446;19.148;2023-02-18T06:20:50;13.99;63.49
71304;DHT22;59091;47.446;19.148;2023-02-18T06:23:17;13.94;63.71
71304;DHT22;59091;47.446;19.148;2023-02-18T06:25:42;13.83;63.71
71304;DHT22;59091;47.446;19.148;2023-02-18T06:28:08;13.95;63.52
71304;DHT22;59091;47.446;19.148;2023-02-18T06:30:34;13.97;63.79
71304;DHT22;59091;47.446;19.148;2023-02-18T06:32:59;14.11;63.39
71304;DHT22;59091;47.446;19.148;2023-02-18T06:35:24;14.01;63.66
71304;DHT22;59091;47.446;19.148;2023-02-18T06:37:50;13.83;63.85
71304;DHT22;59091;47.446;19.148;2023-02-18T06:40:15;13.86;64.43
71304;DHT22;59091;47.446;19.148;2023-02-18T06:42:42;13.75;65.17
71304;DHT22;59091;47.446;19.148;2023-02-18T06:45:08;13.62;65.63
71304;DHT22;59091;47.446;19.148;2023-02-18T06:47:34;13.60;65.67
71304;DHT22;59091;47.446;19.148;2023-02-18T06:49:59;13.58;65.64
71304;DHT22;59091;47.446;19.148;2023-02-18T06:52:25;13.54;65.89
71304;DHT22;59091;47.446;19.148;2023-02-18T06:54:50;13.75;65.66
71304;DHT22;59091;47.446;19.148;2023-02-18T06:57:15;13.79;65.68
71304;DHT22;59091;47.446;19.148;2023-02-18T06:59:41;13.88;65.53
71304;DHT22;59091;47.446;19.148;2023-02-18T07:02:06;13.86;65.66
71304;DHT22;59091;47.446;19.148;2023-02-18T07:04:32;13.97;65.70
71304;DHT22;59091;47.446;19.148;2023-02-18T07:06:57;13.82;66.31
71304;DHT22;59091;47.446;19.148;2023-02-18T07:09:23;13.81;66.64
71304;DHT22;59091;47.446;19.148;2023-02-18T07:11:48;13.77;67.17
71304;DHT22;59091;47.446;19.148;2023-02-18T07:14:13;13.86;67.08
71304;DHT22;59091;47.446;19.148;2023-02-18T07:16:39;13.81;67.47
71304;DHT22;59091;47.446;19.148;2023-02-18T07:19:04;13.85;67.58
71304;DHT22;59091;47.446;19.148;2023-02-18T07:21:30;13.94;67.13
71304;DHT22;59091;47.446;19.148;2023-02-18T07:23:55;13.94;67.10
71304;DHT22;59091;47.446;19.148;2023-02-18T07:26:21;14.02;66.88
71304;DHT22;59091;47.446;19.148;2023-02-18T07:28:46;14.04;67.17
71304;DHT22;59091;47.446;19.148;2023-02-18T07:31:11;14.11;67.05
71304;DHT22;59091;47.446;19.148;2023-02-18T07:33:37;14.19;66.73
71304;DHT22;59091;47.446;19.148;2023-02-18T07:36:03;14.02;67.03
71304;DHT22;59091;47.446;19.148;2023-02-18T07:38:29;14.16;66.74
71304;DHT22;59091;47.446;19.148;2023-02-18T07:40:55;14.21;66.28
71304;DHT22;59091;47.446;19.148;2023-02-18T07:43:21;14.22;66.00
71304;DHT22;59091;47.446;19.148;2023-02-18T07:45:46;14.19;65.80
71304;DHT22;59091;47.446;19.148;2023-02-18T07:48:12;14.23;65.68
71304;DHT22;59091;47.446;19.148;2023-02-18T07:50:42;14.46;65.12
71304;DHT22;59091;47.446;19.148;2023-02-18T07:53:10;14.46;64.87
71304;DHT22;59091;47.446;19.148;2023-02-18T07:55:36;14.34;65.00
71304;DHT22;59091;47.446;19.148;2023-02-18T07:58:35;14.42;64.47
71304;DHT22;59091;47.446;19.148;2023-02-18T08:01:08;14.39;64.19
71304;DHT22;59091;47.446;19.148;2023-02-18T08:03:35;14.60;64.02
71304;DHT22;59091;47.446;19.148;2023-02-18T08:06:02;14.67;63.60
71304;DHT22;59091;47.446;19.148;2023-02-18T08:08:29;14.69;63.52
71304;DHT22;59091;47.446;19.148;2023-02-18T08:10:57;14.69;63.20
71304;DHT22;59091;47.446;19.148;2023-02-18T08:13:22;14.80;63.08
71304;DHT22;59091;47.446;19.148;2023-02-18T08:15:48;14.87;62.87
71304;DHT22;59091;47.446;19.148;2023-02-18T08:18:19;15.01;62.40
71304;DHT22;59091;47.446;19.148;2023-02-18T08:20:46;14.87;62.45
71304;DHT22;59091;47.446;19.148;2023-02-18T08:23:13;15.02;62.24
71304;DHT22;59091;47.446;19.148;2023-02-18T08:25:39;15.10;62.41
71304;DHT22;59091;47.446;19.148;2023-02-18T08:28:05;15.07;61.70
71304;DHT22;59091;47.446;19.148;2023-02-18T08:30:30;15.04;61.47
71304;DHT22;59091;47.446;19.148;2023-02-18T08:32:56;15.31;60.93
71304;DHT22;59091;47.446;19.148;2023-02-18T08:35:22;15.14;60.79
71304;DHT22;59091;47.446;19.148;2023-02-18T08:37:47;15.27;60.64
71304;DHT22;59091;47.446;19.148;2023-02-18T08:40:13;15.20;60.49
71304;DHT22;59091;47.446;19.148;2023-02-18T08:42:39;15.30;60.38
71304;DHT22;59091;47.446;19.148;2023-02-18T08:45:05;15.31;60.19
71304;DHT22;59091;47.446;19.148;2023-02-18T08:47:31;15.31;59.95
71304;DHT22;59091;47.446;19.148;2023-02-18T08:49:57;15.45;59.74
71304;DHT22;59091;47.446;19.148;2023-02-18T08:52:22;15.51;59.62
71304;DHT22;59091;47.446;19.148;2023-02-18T08:54:48;15.59;59.57
71304;DHT22;59091;47.446;19.148;2023-02-18T08:57:13;15.69;59.46
71304;DHT22;59091;47.446;19.148;2023-02-18T08:59:39;15.87;59.14
71304;DHT22;59091;47.446;19.148;2023-02-18T09:02:04;15.87;58.78
71304;DHT22;59091;47.446;19.148;2023-02-18T09:04:30;15.86;58.64
71304;DHT22;59091;47.446;19.148;2023-02-18T09:06:56;15.96;58.74
71304;DHT22;59091;47.446;19.148;2023-02-18T09:09:21;15.87;58.44
71304;DHT22;59091;47.446;19.148;2023-02-18T09:11:47;15.82;58.49
71304;DHT22;59091;47.446;19.148;2023-02-18T09:14:13;15.58;58.99
71304;DHT22;59091;47.446;19.148;2023-02-18T09:16:40;15.52;59.54
71304;DHT22;59091;47.446;19.148;2023-02-18T09:19:06;15.53;59.48
71304;DHT22;59091;47.446;19.148;2023-02-18T09:21:32;15.36;59.38
71304;DHT22;59091;47.446;19.148;2023-02-18T09:23:58;15.63;59.23
71304;DHT22;59091;47.446;19.148;2023-02-18T09:26:23;15.36;59.73
71304;DHT22;59091;47.446;19.148;2023-02-18T09:28:52;15.46;59.73
71304;DHT22;59091;47.446;19.148;2023-02-18T09:31:20;15.62;59.55
71304;DHT22;59091;47.446;19.148;2023-02-18T09:33:50;15.53;59.82
71304;DHT22;59091;47.446;19.148;2023-02-18T09:36:17;15.79;59.40
71304;DHT22;59091;47.446;19.148;2023-02-18T09:38:43;15.96;59.10
71304;DHT22;59091;47.446;19.148;2023-02-18T09:44:01;16.00;58.70
71304;DHT22;59091;47.446;19.148;2023-02-18T09:46:40;16.02;58.90
71304;DHT22;59091;47.446;19.148;2023-02-18T09:49:13;16.04;58.63
71304;DHT22;59091;47.446;19.148;2023-02-18T09:51:40;15.99;58.80
71304;DHT22;59091;47.446;19.148;2023-02-18T09:54:13;15.85;59.12
71304;DHT22;59091;47.446;19.148;2023-02-18T09:56:40;15.81;59.22
71304;DHT22;59091;47.446;19.148;2023-02-18T09:59:12;15.92;59.25
71304;DHT22;59091;47.446;19.148;2023-02-18T10:01:40;16.03;58.93
71304;DHT22;59091;47.446;19.148;2023-02-18T10:04:16;16.07;58.59
71304;DHT22;59091;47.446;19.148;2023-02-18T10:06:43;16.33;57.96
71304;DHT22;59091;47.446;19.148;2023-02-18T10:09:19;16.41;57.51
71304;DHT22;59091;47.446;19.148;2023-02-18T10:11:49;16.60;57.20
71304;DHT22;59091;47.446;19.148;2023-02-18T10:14:16;16.91;56.32
71304;DHT22;59091;47.446;19.148;2023-02-18T10:16:43;16.78;55.67
71304;DHT22;59091;47.446;19.148;2023-02-18T10:21:37;17.09;55.29
71304;DHT22;59091;47.446;19.148;2023-02-18T10:26:46;17.01;55.29
71304;DHT22;59091;47.446;19.148;2023-02-18T10:29:15;16.92;55.45
71304;DHT22;59091;47.446;19.148;2023-02-18T10:32:05;16.94;54.96
71304;DHT22;59091;47.446;19.148;2023-02-18T10:37:34;16.68;54.76
71304;DHT22;59091;47.446;19.148;2023-02-18T10:40:21;16.74;54.92
71304;DHT22;59091;47.446;19.148;2023-02-18T10:50:43;17.12;54.52
71304;DHT22;59091;47.446;19.148;2023-02-18T10:53:13;17.43;54.12
71304;DHT22;59091;47.446;19.148;2023-02-18T10:55:43;17.32;53.93
71304;DHT22;59091;47.446;19.148;2023-02-18T11:01:00;17.62;53.73
71304;DHT22;59091;47.446;19.148;2023-02-18T11:03:42;17.59;53.43
71304;DHT22;59091;47.446;19.148;2023-02-18T11:06:26;17.83;53.40
71304;DHT22;59091;47.446;19.148;2023-02-18T11:08:55;17.83;53.22
71304;DHT22;59091;47.446;19.148;2023-02-18T11:11:29;17.78;53.54
71304;DHT22;59091;47.446;19.148;2023-02-18T11:13:59;17.56;54.18
71304;DHT22;59091;47.446;19.148;2023-02-18T11:16:45;17.37;54.57
71304;DHT22;59091;47.446;19.148;2023-02-18T11:19:33;17.30;54.81
71304;DHT22;59091;47.446;19.148;2023-02-18T11:22:32;16.99;55.65
71304;DHT22;59091;47.446;19.148;2023-02-18T11:25:01;17.01;56.44
71304;DHT22;59091;47.446;19.148;2023-02-18T11:27:45;16.86;56.23
71304;DHT22;59091;47.446;19.148;2023-02-18T11:30:22;16.95;56.12
71304;DHT22;59091;47.446;19.148;2023-02-18T11:32:54;17.06;56.14
71304;DHT22;59091;47.446;19.148;2023-02-18T11:35:23;16.98;56.43
71304;DHT22;59091;47.446;19.148;2023-02-18T11:37:49;17.15;56.26
71304;DHT22;59091;47.446;19.148;2023-02-18T11:40:30;17.36;55.70
71304;DHT22;59091;47.446;19.148;2023-02-18T11:43:12;17.42;55.61
71304;DHT22;59091;47.446;19.148;2023-02-18T11:45:38;17.54;55.78
71304;DHT22;59091;47.446;19.148;2023-02-18T11:48:13;17.54;55.39
71304;DHT22;59091;47.446;19.148;2023-02-18T11:50:39;17.49;55.52
71304;DHT22;59091;47.446;19.148;2023-02-18T11:54:02;17.47;55.50
71304;DHT22;59091;47.446;19.148;2023-02-18T11:56:31;17.53;55.49
71304;DHT22;59091;47.446;19.148;2023-02-18T11:58:57;17.45;55.49
71304;DHT22;59091;47.446;19.148;2023-02-18T12:01:37;17.59;54.98
71304;DHT22;59091;47.446;19.148;2023-02-18T12:04:12;17.67;54.93
71304;DHT22;59091;47.446;19.148;2023-02-18T12:06:49;17.71;54.58
71304;DHT22;59091;47.446;19.148;2023-02-18T12:09:27;17.83;54.46
71304;DHT22;59091;47.446;19.148;2023-02-18T12:12:00;17.87;54.19
71304;DHT22;59091;47.446;19.148;2023-02-18T12:14:26;17.96;53.90
71304;DHT22;59091;47.446;19.148;2023-02-18T12:26:28;17.33;54.19
71304;DHT22;59091;47.446;19.148;2023-02-18T12:29:16;17.51;54.12
71304;DHT22;59091;47.446;19.148;2023-02-18T12:32:43;17.60;54.31
71304;DHT22;59091;47.446;19.148;2023-02-18T12:43:06;17.71;53.78
71304;DHT22;59091;47.446;19.148;2023-02-18T12:56:46;17.40;52.65
71304;DHT22;59091;47.446;19.148;2023-02-18T13:07:52;17.50;52.11
71304;DHT22;59091;47.446;19.148;2023-02-18T13:13:38;17.25;52.48
71304;DHT22;59091;47.446;19.148;2023-02-18T13:16:09;17.26;52.10
71304;DHT22;59091;47.446;19.148;2023-02-18T13:18:44;17.40;52.34
71304;DHT22;59091;47.446;19.148;2023-02-18T13:21:15;17.43;51.84
71304;DHT22;59091;47.446;19.148;2023-02-18T13:24:02;17.47;51.95
71304;DHT22;59091;47.446;19.148;2023-02-18T13:26:31;17.53;51.58
71304;DHT22;59091;47.446;19.148;2023-02-18T13:29:25;17.71;51.28
71304;DHT22;59091;47.446;19.148;2023-02-18T13:34:54;17.74;51.32
71304;DHT22;59091;47.446;19.148;2023-02-18T13:40:20;17.83;51.36
71304;DHT22;59091;47.446;19.148;2023-02-18T13:42:50;17.80;51.21
71304;DHT22;59091;47.446;19.148;2023-02-18T13:45:30;17.67;51.40
71304;DHT22;59091;47.446;19.148;2023-02-18T13:47:57;17.60;51.48
71304;DHT22;59091;47.446;19.148;2023-02-18T13:55:38;17.59;51.87
71304;DHT22;59091;47.446;19.148;2023-02-18T14:01:03;17.51;51.70
71304;DHT22;59091;47.446;19.148;2023-02-18T14:05:55;17.42;52.23
71304;DHT22;59091;47.446;19.148;2023-02-18T14:08:34;17.43;52.88
71304;DHT22;59091;47.446;19.148;2023-02-18T14:13:55;17.53;52.31
71304;DHT22;59091;47.446;19.148;2023-02-18T14:19:55;17.45;52.82
71304;DHT22;59091;47.446;19.148;2023-02-18T14:25:21;17.50;53.16
71304;DHT22;59091;47.446;19.148;2023-02-18T14:27:51;17.53;53.21
71304;DHT22;59091;47.446;19.148;2023-02-18T14:30:23;17.67;53.06
71304;DHT22;59091;47.446;19.148;2023-02-18T14:32:51;17.67;52.79
71304;DHT22;59091;47.446;19.148;2023-02-18T14:41:44;17.32;53.30
71304;DHT22;59091;47.446;19.148;2023-02-18T14:44:45;17.37;53.23
71304;DHT22;59091;47.446;19.148;2023-02-18T14:50:19;17.18;53.19
71304;DHT22;59091;47.446;19.148;2023-02-18T14:52:48;16.96;53.19
71304;DHT22;59091;47.446;19.148;2023-02-18T14:55:43;16.81;53.39
71304;DHT22;59091;47.446;19.148;2023-02-18T15:00:46;16.60;53.02
71304;DHT22;59091;47.446;19.148;2023-02-18T15:03:14;16.55;52.89
71304;DHT22;59091;47.446;19.148;2023-02-18T15:05:41;16.38;52.81
71304;DHT22;59091;47.446;19.148;2023-02-18T15:13:23;16.16;53.33
71304;DHT22;59091;47.446;19.148;2023-02-18T15:15:59;15.97;53.94
71304;DHT22;59091;47.446;19.148;2023-02-18T15:18:36;15.90;54.13
71304;DHT22;59091;47.446;19.148;2023-02-18T15:21:04;15.73;54.38
71304;DHT22;59091;47.446;19.148;2023-02-18T15:23:30;15.42;54.66
71304;DHT22;59091;47.446;19.148;2023-02-18T15:25:58;15.32;54.79
71304;DHT22;59091;47.446;19.148;2023-02-18T15:28:27;15.18;55.06
71304;DHT22;59091;47.446;19.148;2023-02-18T15:30:56;15.10;55.20
71304;DHT22;59091;47.446;19.148;2023-02-18T15:33:22;14.91;55.42
71304;DHT22;59091;47.446;19.148;2023-02-18T15:35:48;14.95;58.82
71304;DHT22;59091;47.446;19.148;2023-02-18T15:38:18;14.77;55.61
71304;DHT22;59091;47.446;19.148;2023-02-18T15:40:50;14.57;55.92
71304;DHT22;59091;47.446;19.148;2023-02-18T15:43:21;14.59;55.82
71304;DHT22;59091;47.446;19.148;2023-02-18T15:45:49;14.56;56.20
71304;DHT22;59091;47.446;19.148;2023-02-18T15:50:54;14.25;56.83
71304;DHT22;59091;47.446;19.148;2023-02-18T15:53:21;14.16;57.12
71304;DHT22;59091;47.446;19.148;2023-02-18T15:55:49;13.97;57.63
71304;DHT22;59091;47.446;19.148;2023-02-18T15:58:29;13.82;58.18
71304;DHT22;59091;47.446;19.148;2023-02-18T16:00:58;13.75;58.60
71304;DHT22;59091;47.446;19.148;2023-02-18T16:03:25;13.74;58.59
71304;DHT22;59091;47.446;19.148;2023-02-18T16:08:35;13.51;59.19
71304;DHT22;59091;47.446;19.148;2023-02-18T16:11:05;13.51;59.12
71304;DHT22;59091;47.446;19.148;2023-02-18T16:13:31;13.39;59.62
71304;DHT22;59091;47.446;19.148;2023-02-18T16:15:58;13.30;59.70
71304;DHT22;59091;47.446;19.148;2023-02-18T16:18:30;13.27;59.57
71304;DHT22;59091;47.446;19.148;2023-02-18T16:21:04;12.99;60.45
71304;DHT22;59091;47.446;19.148;2023-02-18T16:23:40;12.95;60.44
71304;DHT22;59091;47.446;19.148;2023-02-18T16:26:11;12.76;60.97
71304;DHT22;59091;47.446;19.148;2023-02-18T16:28:44;12.83;60.92
71304;DHT22;59091;47.446;19.148;2023-02-18T16:31:09;12.80;60.89
71304;DHT22;59091;47.446;19.148;2023-02-18T16:33:35;12.80;60.79
71304;DHT22;59091;47.446;19.148;2023-02-18T16:36:00;12.73;60.83
71304;DHT22;59091;47.446;19.148;2023-02-18T16:38:32;12.70;60.87
71304;DHT22;59091;47.446;19.148;2023-02-18T16:40:58;12.69;60.91
71304;DHT22;59091;47.446;19.148;2023-02-18T16:43:26;12.55;61.18
71304;DHT22;59091;47.446;19.148;2023-02-18T16:45:58;12.52;61.27
71304;DHT22;59091;47.446;19.148;2023-02-18T16:48:32;12.42;61.22
71304;DHT22;59091;47.446;19.148;2023-02-18T16:51:24;12.45;61.11
71304;DHT22;59091;47.446;19.148;2023-02-18T16:53:48;12.38;61.63
71304;DHT22;59091;47.446;19.148;2023-02-18T16:56:16;12.44;61.34
71304;DHT22;59091;47.446;19.148;2023-02-18T16:58:42;12.41;61.47
71304;DHT22;59091;47.446;19.148;2023-02-18T17:01:21;12.31;61.64
71304;DHT22;59091;47.446;19.148;2023-02-18T17:03:48;12.14;62.05
71304;DHT22;59091;47.446;19.148;2023-02-18T17:06:14;12.24;61.86
71304;DHT22;59091;47.446;19.148;2023-02-18T17:08:39;12.14;61.90
71304;DHT22;59091;47.446;19.148;2023-02-18T17:11:05;12.20;62.10
71304;DHT22;59091;47.446;19.148;2023-02-18T17:13:31;12.22;61.89
71304;DHT22;59091;47.446;19.148;2023-02-18T17:15:57;12.04;62.33
71304;DHT22;59091;47.446;19.148;2023-02-18T17:18:24;12.00;62.68
71304;DHT22;59091;47.446;19.148;2023-02-18T17:20:51;12.05;62.52
71304;DHT22;59091;47.446;19.148;2023-02-18T17:23:19;11.94;62.82
71304;DHT22;59091;47.446;19.148;2023-02-18T17:25:46;11.88;63.09
71304;DHT22;59091;47.446;19.148;2023-02-18T17:28:15;11.86;62.99
71304;DHT22;59091;47.446;19.148;2023-02-18T17:30:44;11.86;63.13
71304;DHT22;59091;47.446;19.148;2023-02-18T17:33:16;11.76;63.27
71304;DHT22;59091;47.446;19.148;2023-02-18T17:35:42;11.71;63.73
71304;DHT22;59091;47.446;19.148;2023-02-18T17:38:13;11.71;63.63
71304;DHT22;59091;47.446;19.148;2023-02-18T17:40:39;11.80;63.48
71304;DHT22;59091;47.446;19.148;2023-02-18T17:43:05;11.65;63.86
71304;DHT22;59091;47.446;19.148;2023-02-18T17:45:42;11.53;64.10
71304;DHT22;59091;47.446;19.148;2023-02-18T17:48:09;11.57;64.45
71304;DHT22;59091;47.446;19.148;2023-02-18T17:50:34;11.53;64.47
71304;DHT22;59091;47.446;19.148;2023-02-18T17:53:00;11.52;64.65
71304;DHT22;59091;47.446;19.148;2023-02-18T17:55:28;11.44;64.78
71304;DHT22;59091;47.446;19.148;2023-02-18T17:57:55;11.33;65.32